Time;durP1;ratioP1;P1;durP2;ratioP2;P2;SDS_P1;SDS_P2;PMS_P1;PMS_P2;Temp;Humidity;BMP_temperature;BMP_pressure;BME280_temperature;BME280_humidity;BME280_pressure;Samples;Min_cycle;Max_cycle;Signal;HPM_P1;HPM_P2
2021/06/10 00:00:35;;;;;;;15.80;12.35;;;17.30;99.90;;;;;;5042205;28;20072;-80
2021/06/10 00:03:01;;;;;;;17.80;12.18;;;17.20;99.90;;;;;;5035319;28;20131;-79
2021/06/10 00:05:28;;;;;;;14.52;11.43;;;17.30;99.90;;;;;;5051802;28;20144;-80
2021/06/10 00:07:54;;;;;;;15.98;12.15;;;17.20;99.90;;;;;;5053006;28;20047;-81
2021/06/10 00:10:21;;;;;;;15.95;12.35;;;17.20;99.90;;;;;;5053013;28;20024;-80
2021/06/10 00:12:47;;;;;;;15.52;12.82;;;17.20;99.90;;;;;;5051811;28;20037;-80
2021/06/10 00:15:19;;;;;;;17.13;12.52;;;17.20;99.90;;;;;;5035156;28;20045;-80
2021/06/10 00:17:45;;;;;;;16.95;12.80;;;17.10;99.90;;;;;;5034894;28;20033;-81
2021/06/10 00:20:13;;;;;;;17.95;12.88;;;17.00;99.90;;;;;;5053747;28;20574;-81
2021/06/10 00:22:40;;;;;;;19.15;12.90;;;17.10;99.90;;;;;;5054131;28;20139;-81
2021/06/10 00:25:08;;;;;;;15.35;12.40;;;17.10;99.90;;;;;;5036222;28;20072;-81
2021/06/10 00:27:34;;;;;;;15.50;12.45;;;17.10;99.90;;;;;;5053036;28;20444;-79
2021/06/10 00:29:59;;;;;;;15.73;12.05;;;17.10;99.90;;;;;;5052696;28;20068;-79
2021/06/10 00:32:25;;;;;;;16.33;12.45;;;17.00;99.90;;;;;;5052589;28;20124;-82
2021/06/10 00:34:51;;;;;;;18.15;13.00;;;16.90;99.90;;;;;;5052734;28;20410;-79
2021/06/10 00:37:16;;;;;;;18.27;13.63;;;16.90;99.90;;;;;;5052680;28;20509;-80
2021/06/10 00:39:43;;;;;;;18.58;14.00;;;16.90;99.90;;;;;;5053198;28;20036;-79
2021/06/10 00:42:10;;;;;;;20.65;14.20;;;17.00;99.90;;;;;;5035423;28;20045;-81
2021/06/10 00:44:35;;;;;;;17.25;13.63;;;17.00;99.90;;;;;;5043781;28;20040;-80
2021/06/10 00:47:02;;;;;;;20.75;15.25;;;16.90;99.90;;;;;;5052595;28;20055;-79
2021/06/10 00:49:28;;;;;;;20.20;15.27;;;16.60;99.90;;;;;;5052767;28;20037;-80
2021/06/10 00:51:54;;;;;;;21.85;17.27;;;16.60;99.90;;;;;;5053580;28;20040;-79
2021/06/10 00:54:20;;;;;;;25.60;18.95;;;16.50;99.90;;;;;;5035903;28;20386;-80
2021/06/10 00:56:48;;;;;;;25.52;19.17;;;17.90;99.90;;;;;;5052581;28;20044;-80
2021/06/10 00:59:14;;;;;;;23.50;18.33;;;16.30;99.90;;;;;;5054312;28;20508;-79
2021/06/10 01:01:40;;;;;;;24.40;19.42;;;16.20;99.90;;;;;;5056106;28;20040;-80
2021/06/10 01:04:05;;;;;;;30.45;19.77;;;16.20;99.90;;;;;;5071517;28;20492;-79
2021/06/10 01:06:39;;;;;;;27.88;19.67;;;16.30;99.90;;;;;;5055791;28;20573;-81
2021/06/10 01:09:08;;;;;;;26.38;20.45;;;16.30;99.90;;;;;;5072138;28;20066;-80
2021/06/10 01:11:46;;;;;;;23.85;18.40;;;16.30;99.90;;;;;;5073292;28;20368;-80
2021/06/10 01:14:23;;;;;;;26.05;17.98;;;16.30;99.90;;;;;;5072105;28;20044;-80
2021/06/10 01:16:51;;;;;;;19.08;14.88;;;16.40;99.90;;;;;;5072774;28;20036;-79
2021/06/10 01:19:21;;;;;;;19.17;14.20;;;16.40;99.90;;;;;;5055027;28;20036;-79
2021/06/10 01:21:47;;;;;;;18.58;14.45;;;16.40;99.90;;;;;;5073405;28;20046;-80
2021/06/10 01:24:31;;;;;;;21.90;15.52;;;16.40;99.90;;;;;;5072088;28;20040;-80
2021/06/10 01:27:06;;;;;;;20.23;14.73;;;16.40;99.90;;;;;;5071316;28;20148;-81
2021/06/10 01:29:35;;;;;;;22.73;15.80;;;16.40;99.90;;;;;;5072195;28;20044;-79
2021/06/10 01:32:01;;;;;;;27.02;17.05;;;16.40;99.90;;;;;;5072149;28;20071;-78
2021/06/10 01:34:27;;;;;;;20.60;16.13;;;16.50;99.90;;;;;;5055733;28;20071;-81
2021/06/10 01:36:55;;;;;;;23.73;17.65;;;16.50;99.90;;;;;;5072115;28;20036;-81
2021/06/10 01:39:26;;;;;;;24.70;17.77;;;16.40;99.90;;;;;;5072015;28;20044;-79
2021/06/10 01:41:53;;;;;;;23.55;17.35;;;16.30;99.90;;;;;;5055302;28;20048;-80
2021/06/10 01:44:20;;;;;;;21.67;16.23;;;16.30;99.90;;;;;;5071889;28;20058;-80
2021/06/10 01:46:49;;;;;;;21.90;16.88;;;16.20;99.90;;;;;;5071808;28;20090;-81
2021/06/10 01:49:16;;;;;;;22.52;16.48;;;16.30;99.90;;;;;;5073000;28;20036;-78
2021/06/10 01:51:43;;;;;;;21.35;16.35;;;16.30;99.90;;;;;;5051282;28;20423;-80
2021/06/10 01:54:11;;;;;;;22.08;14.52;;;16.30;99.90;;;;;;5072623;28;20558;-79
2021/06/10 01:56:38;;;;;;;19.38;13.88;;;16.40;99.90;;;;;;5071871;28;20506;-80
2021/06/10 01:59:05;;;;;;;20.15;13.52;;;16.50;99.90;;;;;;5071548;28;20040;-81
2021/06/10 02:01:32;;;;;;;19.67;14.38;;;16.40;99.90;;;;;;5072910;28;20062;-80
2021/06/10 02:04:01;;;;;;;20.98;15.25;;;16.30;99.90;;;;;;5072884;28;20040;-81
2021/06/10 02:06:29;;;;;;;21.10;15.38;;;16.30;99.90;;;;;;5054882;28;20052;-79
2021/06/10 02:08:56;;;;;;;20.52;14.82;;;16.10;99.90;;;;;;5071835;28;20033;-80
2021/06/10 02:11:22;;;;;;;19.77;14.30;;;16.00;99.90;;;;;;5072131;28;20194;-82
2021/06/10 02:13:49;;;;;;;20.25;16.02;;;16.00;99.90;;;;;;5072197;28;20404;-81
2021/06/10 02:16:16;;;;;;;19.40;15.55;;;16.00;99.90;;;;;;5074517;28;20510;-81
2021/06/10 02:18:45;;;;;;;21.02;15.38;;;16.00;99.90;;;;;;5058059;28;20051;-81
2021/06/10 02:21:13;;;;;;;19.52;16.13;;;16.00;99.90;;;;;;5074962;28;20078;-79
2021/06/10 02:23:40;;;;;;;21.55;16.05;;;16.00;99.90;;;;;;5075432;28;20052;-81
2021/06/10 02:26:06;;;;;;;20.58;15.60;;;16.00;99.90;;;;;;5075284;28;20407;-81
2021/06/10 02:28:33;;;;;;;19.98;15.68;;;16.10;99.90;;;;;;5076414;28;20033;-79
2021/06/10 02:30:59;;;;;;;20.65;15.00;;;16.10;99.90;;;;;;5075083;28;20036;-80
2021/06/10 02:33:25;;;;;;;22.52;16.00;;;15.90;99.90;;;;;;5076279;28;20510;-80
2021/06/10 02:35:51;;;;;;;22.95;16.05;;;15.90;99.90;;;;;;5074959;28;20139;-79
2021/06/10 02:38:20;;;;;;;19.73;15.38;;;15.80;99.90;;;;;;5076422;28;20083;-79
2021/06/10 02:40:48;;;;;;;28.67;21.37;;;15.80;99.90;;;;;;5074832;28;20036;-81
2021/06/10 02:43:14;;;;;;;27.05;20.05;;;15.70;99.90;;;;;;5074774;28;20037;-79
2021/06/10 02:45:43;;;;;;;27.63;20.88;;;15.70;99.90;;;;;;5074678;28;20040;-79
2021/06/10 02:48:10;;;;;;;26.70;20.15;;;15.70;99.90;;;;;;5075869;28;20044;-80
2021/06/10 02:50:39;;;;;;;27.15;19.83;;;15.80;99.90;;;;;;5075799;28;20037;-79
2021/06/10 02:53:06;;;;;;;28.35;19.98;;;15.80;99.90;;;;;;5076435;28;20032;-81
2021/06/10 02:55:36;;;;;;;31.48;21.50;;;15.80;99.90;;;;;;5074431;28;20412;-81
2021/06/10 02:58:03;;;;;;;27.15;19.58;;;15.80;99.90;;;;;;5075836;28;20099;-80
2021/06/10 03:00:31;;;;;;;22.73;16.27;;;15.80;99.90;;;;;;5057458;28;20040;-80
2021/06/10 03:02:58;;;;;;;23.15;16.98;;;15.70;99.90;;;;;;5057446;28;20037;-79
2021/06/10 03:05:26;;;;;;;24.20;17.27;;;15.60;99.90;;;;;;5061433;28;20127;-80
2021/06/10 03:07:52;;;;;;;23.85;18.10;;;15.70;99.90;;;;;;5075095;28;20048;-80
2021/06/10 03:10:20;;;;;;;24.17;18.08;;;15.70;99.90;;;;;;5075778;28;20135;-80
2021/06/10 03:12:48;;;;;;;31.13;19.65;;;15.70;99.90;;;;;;5075527;28;20156;-81
2021/06/10 03:15:14;;;;;;;29.77;19.83;;;15.70;99.90;;;;;;5057335;28;20051;-81
2021/06/10 03:17:41;;;;;;;27.08;19.83;;;15.70;99.90;;;;;;5057521;28;20041;-81
2021/06/10 03:20:08;;;;;;;27.90;20.00;;;15.70;99.90;;;;;;5057345;28;20040;-80
2021/06/10 03:22:35;;;;;;;33.58;22.45;;;15.60;99.90;;;;;;5058229;28;20033;-80
2021/06/10 03:25:03;;;;;;;32.60;23.15;;;15.60;99.90;;;;;;5057244;28;20048;-80
2021/06/10 03:27:30;;;;;;;33.72;22.98;;;15.60;99.90;;;;;;5074198;28;20090;-80
2021/06/10 03:29:57;;;;;;;34.60;23.35;;;15.60;99.90;;;;;;5057149;28;20123;-80
2021/06/10 03:32:24;;;;;;;29.13;22.00;;;15.60;99.90;;;;;;5057445;28;20128;-79
2021/06/10 03:34:50;;;;;;;28.25;20.98;;;15.60;99.90;;;;;;5057233;28;20527;-79
2021/06/10 03:37:16;;;;;;;26.05;20.08;;;15.60;99.90;;;;;;5057193;28;20037;-80
2021/06/10 03:39:43;;;;;;;25.63;19.75;;;15.60;99.90;;;;;;5074769;28;20075;-81
2021/06/10 03:42:10;;;;;;;29.23;21.45;;;15.70;99.90;;;;;;5057038;28;20036;-79
2021/06/10 03:44:36;;;;;;;29.08;20.55;;;15.70;99.90;;;;;;5057318;28;20043;-79
2021/06/10 03:47:04;;;;;;;29.27;21.48;;;15.80;99.90;;;;;;5056879;28;20525;-80
2021/06/10 03:49:31;;;;;;;26.48;19.63;;;15.70;99.90;;;;;;5074596;28;20040;-81
2021/06/10 03:51:57;;;;;;;23.10;18.58;;;15.80;99.90;;;;;;5056242;28;20412;-81
2021/06/10 03:54:23;;;;;;;23.45;17.25;;;15.80;99.90;;;;;;5073144;28;20044;-79
2021/06/10 03:56:49;;;;;;;29.65;18.52;;;15.80;99.90;;;;;;5073418;28;20037;-79
2021/06/10 03:59:15;;;;;;;26.77;19.88;;;15.70;99.90;;;;;;5056430;28;20037;-79
2021/06/10 04:01:41;;;;;;;26.13;19.38;;;15.80;99.90;;;;;;5074819;28;20400;-79
2021/06/10 04:04:08;;;;;;;27.88;20.42;;;15.70;99.90;;;;;;5074331;28;20052;-79
2021/06/10 04:06:37;;;;;;;28.13;20.88;;;15.70;99.90;;;;;;5056445;28;20036;-81
2021/06/10 04:09:06;;;;;;;27.95;19.70;;;15.70;99.90;;;;;;5056373;28;20051;-81
2021/06/10 04:11:32;;;;;;;21.60;17.60;;;15.80;99.90;;;;;;5056376;28;20131;-79
2021/06/10 04:13:58;;;;;;;26.73;18.45;;;15.80;99.90;;;;;;5057478;28;20082;-81
2021/06/10 04:16:24;;;;;;;25.30;17.92;;;15.80;99.90;;;;;;5056512;28;20036;-80
2021/06/10 04:18:51;;;;;;;27.13;19.70;;;15.80;99.90;;;;;;5056344;28;20068;-79
2021/06/10 04:21:19;;;;;;;25.73;19.05;;;15.90;99.90;;;;;;5056097;28;20044;-80
2021/06/10 04:23:44;;;;;;;30.65;21.35;;;15.90;99.90;;;;;;5056184;28;20076;-80
2021/06/10 04:26:10;;;;;;;26.92;20.40;;;15.80;99.90;;;;;;5056111;28;20072;-80
2021/06/10 04:28:35;;;;;;;29.70;20.42;;;15.90;99.90;;;;;;5056202;28;20051;-80
2021/06/10 04:31:01;;;;;;;29.00;21.40;;;16.00;99.90;;;;;;5056109;28;20067;-80
2021/06/10 04:33:27;;;;;;;28.73;21.02;;;16.00;99.90;;;;;;5056220;28;20083;-81
2021/06/10 04:35:53;;;;;;;28.15;19.73;;;16.10;99.90;;;;;;5074006;28;20040;-80
2021/06/10 04:38:20;;;;;;;30.27;20.67;;;16.10;99.90;;;;;;5055737;28;20098;-81
2021/06/10 04:40:46;;;;;;;30.05;21.45;;;16.20;99.90;;;;;;5076157;28;20044;-84
2021/06/10 04:43:12;;;;;;;28.67;20.95;;;16.30;99.90;;;;;;5059877;28;20130;-84
2021/06/10 04:45:38;;;;;;;29.55;22.23;;;16.30;99.90;;;;;;5059687;28;20044;-85
2021/06/10 04:48:04;;;;;;;26.40;19.75;;;16.40;99.90;;;;;;5064573;28;20050;-81
2021/06/10 04:50:31;;;;;;;29.20;21.42;;;16.40;99.90;;;;;;5075047;28;20051;-81
2021/06/10 04:52:57;;;;;;;28.92;20.45;;;16.40;99.90;;;;;;5073454;28;20033;-80
2021/06/10 04:55:24;;;;;;;28.23;20.73;;;16.50;99.90;;;;;;5072582;28;20064;-82
2021/06/10 04:57:50;;;;;;;27.20;20.60;;;16.50;99.90;;;;;;5072562;28;20087;-81
2021/06/10 05:02:45;;;;;;;24.70;18.27;;;16.50;99.90;;;;;;5013873;28;20054;-84
2021/06/10 05:05:11;;;;;;;27.17;18.85;;;16.60;99.90;;;;;;4997481;28;20053;-84
2021/06/10 05:07:37;;;;;;;26.50;18.80;;;16.70;99.90;;;;;;4997230;28;20409;-82
2021/06/10 05:10:05;;;;;;;26.83;20.13;;;16.80;99.90;;;;;;5013755;28;20124;-82
2021/06/10 05:12:32;;;;;;;26.80;20.92;;;16.80;99.90;;;;;;5013582;28;20038;-82
2021/06/10 05:14:58;;;;;;;27.40;20.90;;;16.90;99.90;;;;;;5013682;28;20504;-81
2021/06/10 05:17:24;;;;;;;26.95;19.25;;;16.90;99.90;;;;;;5012666;28;20145;-82
2021/06/10 05:19:50;;;;;;;24.23;19.27;;;17.00;99.90;;;;;;5012443;28;20049;-82
2021/06/10 05:22:16;;;;;;;24.42;18.77;;;17.00;99.90;;;;;;5012614;28;20409;-82
2021/06/10 05:24:41;;;;;;;26.35;20.08;;;17.10;99.90;;;;;;5013635;28;20068;-82
2021/06/10 05:27:09;;;;;;;30.58;21.92;;;17.20;99.90;;;;;;5013699;28;20038;-82
2021/06/10 05:29:36;;;;;;;28.42;20.90;;;17.30;99.90;;;;;;5013563;28;20072;-82
2021/06/10 05:32:03;;;;;;;31.55;20.83;;;17.20;99.90;;;;;;5013883;28;20046;-82
2021/06/10 05:34:28;;;;;;;28.63;21.63;;;17.10;99.90;;;;;;5013883;28;20456;-82
2021/06/10 05:36:54;;;;;;;31.60;21.15;;;17.10;99.90;;;;;;5012220;28;20144;-81
2021/06/10 05:39:21;;;;;;;27.27;20.48;;;17.00;99.90;;;;;;5012328;28;20038;-81
2021/06/10 05:41:47;;;;;;;27.63;20.80;;;17.00;99.90;;;;;;5012302;28;20405;-82
2021/06/10 05:44:13;;;;;;;27.48;20.88;;;17.20;99.90;;;;;;5004461;28;20034;-81
2021/06/10 05:46:40;;;;;;;28.25;20.75;;;17.20;99.90;;;;;;5013423;28;20177;-82
2021/06/10 05:49:06;;;;;;;29.52;21.38;;;17.30;99.90;;;;;;5012455;28;20502;-82
2021/06/10 05:51:32;;;;;;;25.10;19.75;;;17.30;99.90;;;;;;5015335;28;20049;-82
2021/06/10 05:53:57;;;;;;;28.90;21.13;;;17.30;99.90;;;;;;5015880;28;20077;-82
2021/06/10 05:56:23;;;;;;;26.70;20.50;;;17.30;99.90;;;;;;5016122;28;20042;-82
2021/06/10 05:58:49;;;;;;;29.13;20.92;;;17.40;99.90;;;;;;5016014;28;20041;-84
2021/06/10 06:01:14;;;;;;;31.02;21.60;;;17.40;99.90;;;;;;5017401;28;20486;-84
2021/06/10 06:03:42;;;;;;;30.98;21.05;;;17.40;99.90;;;;;;5018301;28;20076;-82
2021/06/10 06:06:08;;;;;;;31.15;22.17;;;17.50;99.90;;;;;;5017160;28;20046;-81
2021/06/10 06:08:34;;;;;;;32.05;22.45;;;17.50;99.90;;;;;;5015800;28;20096;-82
2021/06/10 06:11:00;;;;;;;27.83;20.65;;;17.60;99.90;;;;;;5019478;28;20113;-84
2021/06/10 06:13:43;;;;;;;29.15;22.70;;;17.70;99.90;;;;;;5020124;28;20034;-84
2021/06/10 06:16:10;;;;;;;29.13;20.88;;;17.80;99.90;;;;;;5019727;28;20454;-84
2021/06/10 06:18:36;;;;;;;32.50;22.13;;;17.80;99.90;;;;;;5019987;28;20075;-84
2021/06/10 06:21:03;;;;;;;29.98;21.48;;;17.90;99.90;;;;;;5019365;28;20034;-84
2021/06/10 06:23:30;;;;;;;32.03;21.77;;;18.00;99.90;;;;;;5019105;28;20140;-84
2021/06/10 06:25:56;;;;;;;31.58;22.65;;;18.00;99.90;;;;;;5006215;28;20049;-83
2021/06/10 06:28:22;;;;;;;30.70;22.00;;;18.00;99.90;;;;;;5000029;28;20048;-81
2021/06/10 06:30:47;;;;;;;27.92;21.65;;;18.00;99.90;;;;;;4999454;28;20077;-82
2021/06/10 06:33:13;;;;;;;32.00;22.20;;;18.00;99.90;;;;;;5016053;28;20073;-81
2021/06/10 06:35:41;;;;;;;29.70;20.80;;;18.20;99.90;;;;;;5015433;28;20073;-82
2021/06/10 06:38:08;;;;;;;30.35;19.55;;;18.30;99.90;;;;;;5015425;28;20041;-82
2021/06/10 06:40:34;;;;;;;29.30;20.23;;;18.40;99.90;;;;;;5015377;28;20053;-82
2021/06/10 06:43:00;;;;;;;27.20;19.52;;;18.50;99.90;;;;;;5015170;28;20038;-82
2021/06/10 06:45:26;;;;;;;30.77;21.00;;;18.60;99.90;;;;;;5016415;28;20080;-82
2021/06/10 06:47:51;;;;;;;27.52;21.52;;;18.70;99.90;;;;;;5012364;28;20077;-82
2021/06/10 06:50:17;;;;;;;27.45;20.88;;;18.70;99.90;;;;;;5015615;28;20044;-82
2021/06/10 06:52:43;;;;;;;28.92;19.58;;;18.80;99.90;;;;;;5014665;28;20042;-82
2021/06/10 06:55:12;;;;;;;27.40;19.10;;;18.90;99.90;;;;;;5016269;28;20038;-84
2021/06/10 06:57:37;;;;;;;27.67;19.40;;;19.00;99.90;;;;;;5014897;28;20065;-82
2021/06/10 07:00:05;;;;;;;27.10;20.23;;;19.10;99.90;;;;;;5014772;28;20076;-82
2021/06/10 07:02:30;;;;;;;23.92;18.58;;;19.20;99.90;;;;;;5014610;28;20046;-82
2021/06/10 07:04:56;;;;;;;24.00;17.08;;;19.20;99.90;;;;;;5016295;28;20037;-81
2021/06/10 07:07:22;;;;;;;26.73;20.40;;;19.30;99.90;;;;;;5014993;28;20080;-81
2021/06/10 07:09:47;;;;;;;28.40;21.77;;;19.40;99.90;;;;;;5014702;28;20072;-82
2021/06/10 07:12:14;;;;;;;29.77;20.15;;;19.30;99.90;;;;;;5014629;28;20124;-82
2021/06/10 07:14:41;;;;;;;29.40;22.17;;;19.40;99.90;;;;;;5014503;28;20038;-82
2021/06/10 07:17:06;;;;;;;33.35;21.95;;;19.50;99.90;;;;;;5016308;28;20037;-81
2021/06/10 07:19:32;;;;;;;27.70;19.70;;;19.60;99.90;;;;;;5015801;28;20033;-82
2021/06/10 07:21:58;;;;;;;28.33;21.23;;;19.70;99.90;;;;;;5014573;28;20045;-81
2021/06/10 07:24:23;;;;;;;32.55;21.33;;;19.70;99.90;;;;;;5015775;28;20073;-81
2021/06/10 07:26:49;;;;;;;28.00;18.85;;;19.80;99.90;;;;;;5015558;28;20038;-82
2021/06/10 07:29:17;;;;;;;30.95;22.08;;;20.00;99.90;;;;;;5005940;28;20069;-81
2021/06/10 07:31:43;;;;;;;30.15;21.08;;;20.00;99.90;;;;;;4978833;28;20053;-83
2021/06/10 07:34:09;;;;;;;29.38;21.33;;;20.00;99.90;;;;;;4980147;28;20042;-81
2021/06/10 07:36:36;;;;;;;27.42;20.27;;;20.10;99.90;;;;;;4997185;28;20475;-82
2021/06/10 07:39:03;;;;;;;26.65;18.38;;;20.20;99.90;;;;;;4978953;28;20038;-80
2021/06/10 07:41:29;;;;;;;25.52;19.02;;;20.30;99.90;;;;;;4996348;28;20048;-81
2021/06/10 07:43:54;;;;;;;25.27;18.58;;;20.40;99.90;;;;;;4978885;28;20121;-82
2021/06/10 07:46:21;;;;;;;23.40;16.70;;;20.40;99.90;;;;;;4978597;28;20442;-82
2021/06/10 07:48:47;;;;;;;24.70;17.98;;;20.40;99.90;;;;;;4978474;28;20038;-81
2021/06/10 07:51:13;;;;;;;21.08;15.10;;;20.50;99.90;;;;;;4978008;28;20508;-81
2021/06/10 07:53:39;;;;;;;26.13;17.58;;;20.50;99.90;;;;;;4996110;28;20042;-82
2021/06/10 07:56:05;;;;;;;22.73;16.08;;;20.50;99.90;;;;;;5015067;28;20044;-82
2021/06/10 07:58:32;;;;;;;22.67;15.77;;;20.50;99.90;;;;;;5014846;28;20060;-81
2021/06/10 08:00:58;;;;;;;19.77;14.77;;;20.60;99.90;;;;;;4997669;28;20038;-82
2021/06/10 08:03:25;;;;;;;19.85;14.80;;;20.70;99.90;;;;;;4997455;28;20100;-81
2021/06/10 08:05:52;;;;;;;20.08;14.10;;;20.70;99.90;;;;;;4997638;28;20050;-82
2021/06/10 08:08:17;;;;;;;21.60;14.63;;;20.70;99.90;;;;;;4998355;28;20040;-82
2021/06/10 08:10:45;;;;;;;17.58;12.70;;;20.70;99.90;;;;;;4999609;28;20128;-82
2021/06/10 08:13:11;;;;;;;19.60;13.18;;;20.70;99.90;;;;;;4998647;28;20405;-84
2021/06/10 08:15:37;;;;;;;19.73;11.57;;;20.80;99.90;;;;;;4997839;28;20041;-82
2021/06/10 08:18:04;;;;;;;15.88;11.43;;;20.80;99.90;;;;;;4997186;28;20045;-81
2021/06/10 08:20:31;;;;;;;14.82;10.35;;;20.80;99.90;;;;;;4997172;28;20144;-82
2021/06/10 08:22:59;;;;;;;17.38;11.90;;;20.90;99.90;;;;;;4996687;28;20490;-82
2021/06/10 08:25:27;;;;;;;21.35;13.50;;;20.90;99.90;;;;;;5013437;28;20042;-81
2021/06/10 08:27:53;;;;;;;19.67;12.77;;;21.00;99.90;;;;;;5015163;28;20092;-83
2021/06/10 08:30:20;;;;;;;18.20;12.57;;;21.00;99.90;;;;;;5015017;28;20038;-81
2021/06/10 08:32:45;;;;;;;15.30;11.00;;;21.10;99.90;;;;;;5012821;28;20064;-82
2021/06/10 08:35:12;;;;;;;11.98;7.13;;;21.20;99.90;;;;;;5013146;28;20458;-82
2021/06/10 08:37:39;;;;;;;11.88;8.45;;;21.20;99.90;;;;;;4996975;28;20037;-81
2021/06/10 08:40:08;;;;;;;9.07;5.40;;;21.20;99.90;;;;;;5014376;28;20042;-82
2021/06/10 08:42:36;;;;;;;7.63;5.80;;;21.20;99.90;;;;;;5013883;28;20108;-82
2021/06/10 08:45:02;;;;;;;6.95;4.43;;;21.30;99.90;;;;;;5013030;28;20096;-82
2021/06/10 08:47:29;;;;;;;6.40;4.25;;;21.40;99.90;;;;;;5012874;28;20042;-82
2021/06/10 08:49:55;;;;;;;6.00;3.97;;;21.30;99.90;;;;;;5014294;28;20394;-82
2021/06/10 08:52:21;;;;;;;7.22;3.97;;;21.40;99.90;;;;;;4996801;28;20045;-81
2021/06/10 08:54:48;;;;;;;7.10;3.72;;;21.40;99.90;;;;;;5013133;28;20136;-82
2021/06/10 08:57:13;;;;;;;7.07;4.03;;;21.40;99.90;;;;;;5012724;28;20046;-82
2021/06/10 08:59:39;;;;;;;5.43;3.30;;;21.40;99.90;;;;;;5013936;28;20050;-82
2021/06/10 09:02:05;;;;;;;6.43;3.20;;;21.50;99.90;;;;;;5012982;28;20038;-82
2021/06/10 09:04:31;;;;;;;4.20;2.70;;;21.50;99.90;;;;;;5013994;28;20133;-81
2021/06/10 09:06:59;;;;;;;6.40;2.90;;;21.50;99.80;;;;;;5013983;28;20046;-82
2021/06/10 09:09:33;;;;;;;4.65;2.70;;;21.60;99.70;;;;;;5012691;28;20497;-81
2021/06/10 09:12:10;;;;;;;6.72;2.70;;;21.60;99.90;;;;;;5013965;28;20113;-82
2021/06/10 09:14:52;;;;;;;4.40;2.75;;;21.60;99.50;;;;;;5014064;28;20048;-81
2021/06/10 09:17:31;;;;;;;4.65;2.30;;;21.70;99.90;;;;;;5014049;28;20498;-81
2021/06/10 09:19:57;;;;;;;4.97;3.00;;;21.80;99.20;;;;;;5013912;28;20041;-81
2021/06/10 09:22:26;;;;;;;4.85;3.03;;;21.80;98.10;;;;;;5012914;28;20041;-81
2021/06/10 09:25:01;;;;;;;6.10;2.97;;;21.80;98.30;;;;;;5013949;28;20130;-81
2021/06/10 09:27:28;;;;;;;5.22;3.20;;;21.90;99.10;;;;;;5017778;28;20037;-82
2021/06/10 09:29:55;;;;;;;4.95;3.20;;;21.90;97.50;;;;;;5016626;28;20042;-81
2021/06/10 09:32:23;;;;;;;4.85;2.78;;;21.90;97.70;;;;;;5016661;28;20037;-82
2021/06/10 09:34:52;;;;;;;5.93;3.03;;;21.90;98.40;;;;;;5017918;28;20117;-81
2021/06/10 09:37:33;;;;;;;5.10;2.88;;;21.90;97.00;;;;;;5016747;28;20124;-81
2021/06/10 09:40:00;;;;;;;5.60;3.38;;;21.90;97.90;;;;;;5016448;28;20258;-82
2021/06/10 09:42:29;;;;;;;8.68;4.05;;;22.00;98.10;;;;;;5017885;28;20041;-82
2021/06/10 09:44:59;;;;;;;7.20;4.13;;;22.00;97.70;;;;;;5016731;28;20092;-81
2021/06/10 09:47:30;;;;;;;5.57;3.70;;;22.00;96.80;;;;;;5018015;28;20065;-81
2021/06/10 09:49:56;;;;;;;7.10;4.07;;;22.00;99.00;;;;;;5008851;28;20125;-81
2021/06/10 09:52:22;;;;;;;4.72;3.10;;;22.10;98.00;;;;;;5016382;28;20077;-81
2021/06/10 09:54:51;;;;;;;6.47;3.53;;;22.20;98.10;;;;;;5002178;28;20056;-83
2021/06/10 09:57:17;;;;;;;4.88;3.30;;;22.10;99.00;;;;;;5017884;28;20049;-82
2021/06/10 09:59:47;;;;;;;7.85;4.03;;;22.20;97.90;;;;;;5000167;28;20081;-83
2021/06/10 10:02:16;;;;;;;;;;;22.10;98.50;;;;;;5001341;28;20395;-82
2021/06/10 10:04:56;;;;;;;6.85;4.47;;;22.20;98.80;;;;;;5000980;28;19964;-81
2021/06/10 10:07:22;;;;;;;6.32;4.13;;;22.20;97.20;;;;;;5017933;28;20049;-82
2021/06/10 10:09:48;;;;;;;10.05;4.03;;;22.20;97.40;;;;;;5000783;28;20042;-83
2021/06/10 10:12:14;;;;;;;5.07;3.50;;;22.20;97.00;;;;;;5002639;28;20084;-82
2021/06/10 10:14:40;;;;;;;7.85;3.17;;;22.20;96.60;;;;;;5017358;28;20034;-82
2021/06/10 10:17:07;;;;;;;5.43;2.97;;;22.30;97.80;;;;;;5016264;28;20037;-81
2021/06/10 10:19:33;;;;;;;6.07;3.40;;;22.40;98.10;;;;;;5019547;28;20048;-81
2021/06/10 10:21:59;;;;;;;6.00;3.63;;;22.40;97.90;;;;;;5016952;28;20113;-83
2021/06/10 10:24:25;;;;;;;5.75;3.40;;;22.50;98.60;;;;;;5016420;28;20073;-82
2021/06/10 10:26:50;;;;;;;4.43;3.10;;;22.60;98.10;;;;;;5016453;28;20124;-83
2021/06/10 10:29:17;;;;;;;6.13;2.60;;;22.60;97.00;;;;;;5017301;28;20520;-82
2021/06/10 10:31:45;;;;;;;3.40;2.00;;;22.60;95.70;;;;;;5015995;28;20045;-83
2021/06/10 10:34:22;;;;;;;3.45;1.70;;;22.60;94.10;;;;;;5017753;28;20072;-83
2021/06/10 10:36:48;;;;;;;3.50;1.70;;;22.60;95.10;;;;;;5015773;28;20509;-81
2021/06/10 10:39:14;;;;;;;3.85;1.70;;;22.70;93.70;;;;;;5017925;28;20042;-83
2021/06/10 10:41:47;;;;;;;4.47;1.90;;;22.70;93.50;;;;;;5016444;28;20042;-82
2021/06/10 10:44:27;;;;;;;3.10;1.95;;;22.70;93.30;;;;;;5016103;28;20041;-82
2021/06/10 10:47:02;;;;;;;;;;;22.70;94.80;;;;;;5016691;28;20037;-81
2021/06/10 10:49:35;;;;;;;5.25;2.10;;;22.80;95.10;;;;;;5016057;28;19921;-83
2021/06/10 10:52:27;;;;;;;3.97;2.45;;;22.80;94.90;;;;;;5015505;28;20444;-82
2021/06/10 10:54:53;;;;;;;4.07;2.28;;;22.90;94.60;;;;;;4998982;28;20046;-82
2021/06/10 10:57:39;;;;;;;4.82;2.55;;;23.00;95.70;;;;;;5016525;28;20053;-81
2021/06/10 11:00:07;;;;;;;4.38;2.30;;;23.20;96.50;;;;;;5018259;28;20106;-82
2021/06/10 11:02:40;;;;;;;4.10;2.63;;;23.20;95.10;;;;;;5058859;22;20064;-89
2021/06/10 11:05:09;;;;;;;7.18;2.90;;;23.30;95.40;;;;;;5052031;28;20037;-89
2021/06/10 11:07:54;;;;;;;;;;;23.40;95.90;;;;;;5036623;28;20107;-87
2021/06/10 11:10:59;;;;;;;3.80;2.33;;;23.50;95.70;;;;;;5048836;28;20297;-89
2021/06/10 11:13:26;;;;;;;4.00;2.00;;;23.50;96.10;;;;;;5032825;28;20049;-89
2021/06/10 11:15:54;;;;;;;4.38;2.50;;;23.50;95.40;;;;;;5032052;28;20045;-90
2021/06/10 11:18:54;;;;;;;3.67;2.03;;;23.50;95.00;;;;;;5032041;28;20041;-89
2021/06/10 11:21:50;;;;;;;5.80;2.55;;;24.20;96.20;;;;;;4937059;29;20094;-89
2021/06/10 11:24:21;;;;;;;4.03;2.30;;;23.80;94.30;;;;;;4921869;29;20587;-88
2021/06/10 11:26:53;;;;;;;3.95;2.20;;;23.90;95.90;;;;;;4999577;28;20046;-89
2021/06/10 11:29:19;;;;;;;3.08;1.90;;;24.00;94.80;;;;;;5014952;28;20540;-88
2021/06/10 11:32:18;;;;;;;3.95;2.20;;;24.20;96.70;;;;;;5014640;28;20041;-89
2021/06/10 11:34:49;;;;;;;5.78;2.50;;;24.40;94.40;;;;;;5031165;28;20083;-89
2021/06/10 11:37:20;;;;;;;4.07;2.53;;;24.70;96.20;;;;;;5030891;28;20034;-89
2021/06/10 11:39:46;;;;;;;5.38;2.38;;;24.70;94.50;;;;;;5015759;28;20049;-88
2021/06/10 11:42:12;;;;;;;3.72;2.03;;;24.60;93.50;;;;;;5031108;28;20038;-88
2021/06/10 11:44:46;;;;;;;3.88;2.40;;;24.50;93.90;;;;;;5030785;28;20033;-89
2021/06/10 11:47:22;;;;;;;3.25;1.80;;;24.60;93.90;;;;;;5030644;28;20049;-88
2021/06/10 11:49:48;;;;;;;3.70;2.22;;;24.60;92.80;;;;;;5030976;28;20514;-89
2021/06/10 11:52:13;;;;;;;3.33;1.80;;;24.60;94.60;;;;;;5030685;28;20084;-89
2021/06/10 11:55:00;;;;;;;4.10;1.75;;;24.70;95.00;;;;;;5031081;28;20046;-86
2021/06/10 11:57:27;;;;;;;3.35;2.13;;;24.50;92.30;;;;;;5031110;28;20486;-88
2021/06/10 11:59:52;;;;;;;2.60;1.70;;;24.30;92.40;;;;;;5014697;28;20521;-88
2021/06/10 12:02:22;;;;;;;4.53;1.88;;;24.20;93.90;;;;;;5014199;28;20069;-87
2021/06/10 12:04:48;;;;;;;2.67;1.50;;;24.20;94.20;;;;;;5030349;28;20042;-89
2021/06/10 12:07:17;;;;;;;4.40;1.90;;;24.40;95.50;;;;;;5030247;28;20091;-88
2021/06/10 12:09:50;;;;;;;3.80;1.80;;;24.60;94.90;;;;;;5030216;28;20099;-88
2021/06/10 12:12:30;;;;;;;3.15;1.80;;;24.60;93.80;;;;;;5030419;28;20042;-89
2021/06/10 12:14:55;;;;;;;4.57;1.67;;;24.80;96.20;;;;;;5030806;28;20045;-88
2021/06/10 12:17:21;;;;;;;3.75;1.90;;;25.00;93.90;;;;;;5015068;28;20044;-88
2021/06/10 12:19:47;;;;;;;4.13;1.92;;;25.10;92.50;;;;;;5014582;28;20410;-89
2021/06/10 12:22:12;;;;;;;2.65;1.48;;;24.90;94.00;;;;;;5015592;28;20486;-87
2021/06/10 12:24:41;;;;;;;3.55;1.40;;;24.80;91.40;;;;;;5016239;28;20092;-88
2021/06/10 12:27:16;;;;;;;3.38;1.50;;;24.90;92.30;;;;;;5016221;28;20512;-89
2021/06/10 12:29:48;;;;;;;2.97;1.25;;;24.90;90.50;;;;;;5031474;28;20038;-89
2021/06/10 12:32:23;;;;;;;2.47;1.50;;;25.00;92.50;;;;;;5015873;28;20052;-89
2021/06/10 12:34:53;;;;;;;3.58;1.67;;;25.00;90.20;;;;;;5015629;28;20064;-89
2021/06/10 12:37:19;;;;;;;3.55;1.40;;;25.00;90.40;;;;;;5030941;28;20111;-89
2021/06/10 12:39:44;;;;;;;4.18;1.50;;;25.00;90.50;;;;;;5013703;28;20073;-88